Carver, Oregon
Current Conditions -  °F | °C
As of 3:53 PM on Friday 21 Nov 2014 (Local Time) from KTTD Reporting Station
Light Rain Light Rain  
Wind Chill: 36°   Ceiling: 2000
Heat Index: 44°   Visibility: 3mi
Dew Point: 40°   Wind: 18mph
Humidity: 85%   Direction: 80°E
Pressure: 29.51"   Gusts: 28mph
Location:  45.4156°N, 122.523°W
Report Text: KTTD 212353Z 08016G24KT 3SM -RA BR OVC020 07/04 A2951 RMK AO2 PK WND 09029/2326 SLP993 P0003 60030 T00670044 10067 20050 56047
Loading
Personal Weather Stations






























Interactive Weather Map New forecast layout! Learn more

10-Day Weather Forecast

Advertisements
Track Severe Weather on mobile